createdAt,value
2018-03-31T00:00:33.017Z,18.00
2018-03-31T00:05:23.854Z,16.23
2018-03-31T00:10:14.698Z,18.50
2018-03-31T00:15:06.261Z,17.07
2018-03-31T00:19:57.086Z,16.73
2018-03-31T00:24:47.901Z,15.37
2018-03-31T00:29:38.716Z,24.90
2018-03-31T00:34:29.715Z,18.77
2018-03-31T00:39:21.274Z,18.80
2018-03-31T00:44:12.833Z,17.33
2018-03-31T00:49:03.673Z,21.13
2018-03-31T00:53:54.501Z,17.27
2018-03-31T00:58:45.321Z,17.07
2018-03-31T01:03:36.151Z,21.47
2018-03-31T01:08:26.971Z,18.50
2018-03-31T01:13:17.797Z,18.47
2018-03-31T01:18:08.640Z,17.67
2018-03-31T01:22:59.474Z,20.40
2018-03-31T01:27:50.301Z,15.33
2018-03-31T01:32:41.122Z,20.00
2018-03-31T01:37:31.943Z,21.97
2018-03-31T01:42:23.520Z,18.27
2018-03-31T01:47:14.333Z,20.13
2018-03-31T01:52:05.897Z,19.10
2018-03-31T01:56:56.723Z,20.50
2018-03-31T02:01:47.557Z,16.90
2018-03-31T02:06:38.388Z,19.23
2018-03-31T02:11:29.201Z,17.57
2018-03-31T02:16:20.027Z,22.57
2018-03-31T02:21:10.853Z,21.33
2018-03-31T02:26:01.683Z,19.43
2018-03-31T02:30:52.507Z,19.80
2018-03-31T02:35:43.325Z,21.77
2018-03-31T02:40:34.159Z,18.70
2018-03-31T02:45:24.988Z,19.50
2018-03-31T02:50:15.831Z,24.30
2018-03-31T02:55:06.641Z,20.60
2018-03-31T02:59:57.477Z,22.97
2018-03-31T03:04:48.289Z,22.40
2018-03-31T03:09:39.120Z,19.73
2018-03-31T03:14:29.953Z,21.53
2018-03-31T03:19:21.513Z,24.83
2018-03-31T03:29:30.131Z,19.37
2018-03-31T03:34:20.959Z,22.00
2018-03-31T03:39:11.783Z,17.80
2018-03-31T03:44:02.603Z,22.33
2018-03-31T03:48:53.421Z,22.50
2018-03-31T03:53:44.232Z,21.60
2018-03-31T03:58:35.049Z,19.70
2018-03-31T04:03:25.865Z,23.67
2018-03-31T04:08:17.417Z,22.77
2018-03-31T04:13:08.263Z,19.87
2018-03-31T04:17:59.095Z,17.57
2018-03-31T04:22:49.913Z,19.13
2018-03-31T04:27:40.730Z,17.37
2018-03-31T04:32:31.550Z,20.00
2018-03-31T04:37:23.105Z,13.87
2018-03-31T04:42:13.927Z,20.03
2018-03-31T04:47:04.752Z,17.57
2018-03-31T04:51:55.578Z,16.23
2018-03-31T04:56:46.392Z,12.23
2018-03-31T05:01:37.214Z,21.40
2018-03-31T05:06:28.773Z,19.40
2018-03-31T05:11:19.616Z,16.50
2018-03-31T05:16:10.429Z,15.13
2018-03-31T05:21:01.250Z,18.17
2018-03-31T05:25:52.067Z,13.87
2018-03-31T05:30:42.896Z,13.63
2018-03-31T05:35:33.731Z,22.03
2018-03-31T05:40:24.549Z,17.80
2018-03-31T05:45:15.424Z,16.07
2018-03-31T05:50:06.358Z,20.37
2018-03-31T05:54:57.183Z,17.83
2018-03-31T05:59:48.021Z,19.17
2018-03-31T06:04:38.855Z,17.87
2018-03-31T06:09:29.678Z,22.60
2018-03-31T06:14:20.510Z,18.40
2018-03-31T06:19:12.079Z,19.97
2018-03-31T06:24:02.910Z,21.83
2018-03-31T06:28:53.721Z,22.53
2018-03-31T06:33:45.346Z,24.47
2018-03-31T06:38:36.179Z,21.27
2018-03-31T06:43:27.750Z,22.60
2018-03-31T06:48:18.566Z,17.30
2018-03-31T06:53:10.140Z,23.20
2018-03-31T06:58:00.967Z,26.10
2018-03-31T07:02:51.785Z,21.50
2018-03-31T07:07:42.597Z,20.07
2018-03-31T07:12:33.474Z,16.83
2018-03-31T07:17:24.293Z,18.00
2018-03-31T07:22:15.141Z,13.90
2018-03-31T07:27:06.717Z,13.80
2018-03-31T07:31:57.552Z,16.93
2018-03-31T07:36:48.373Z,16.23
2018-03-31T07:41:39.193Z,17.37
2018-03-31T07:46:30.010Z,16.40
2018-03-31T07:51:21.565Z,18.00
2018-03-31T07:56:12.377Z,16.17
2018-03-31T08:01:03.966Z,19.00
2018-03-31T08:05:54.793Z,17.73
2018-03-31T08:10:45.620Z,17.03
2018-03-31T08:15:36.457Z,14.57
2018-03-31T08:20:27.278Z,17.53
2018-03-31T08:25:18.109Z,12.90
2018-03-31T08:30:08.930Z,19.50
2018-03-31T08:34:59.777Z,17.97
2018-03-31T08:39:50.598Z,12.50
2018-03-31T08:44:41.429Z,26.97
2018-03-31T08:49:32.266Z,59.30
2018-03-31T08:54:23.086Z,35.07
2018-03-31T08:59:14.654Z,26.80
2018-03-31T09:04:05.487Z,30.57
2018-03-31T09:08:56.444Z,26.07
2018-03-31T09:13:48.043Z,24.60
2018-03-31T09:18:38.896Z,31.10
2018-03-31T09:23:29.733Z,29.97
2018-03-31T09:28:20.581Z,30.90
2018-03-31T09:33:11.411Z,34.33
2018-03-31T09:38:02.247Z,30.00
2018-03-31T09:42:53.077Z,47.87
2018-03-31T09:47:43.931Z,37.30
2018-03-31T09:52:34.764Z,35.90
2018-03-31T09:57:25.592Z,36.10
2018-03-31T10:02:16.423Z,34.50
2018-03-31T10:07:07.251Z,27.27
2018-03-31T10:11:58.073Z,31.23
2018-03-31T10:16:48.915Z,29.67
2018-03-31T10:21:39.747Z,28.40
2018-03-31T10:26:30.575Z,30.97
2018-03-31T10:31:21.424Z,28.33
2018-03-31T10:36:12.258Z,28.63
2018-03-31T10:41:03.092Z,28.70
2018-03-31T10:45:53.931Z,31.53
2018-03-31T10:50:44.767Z,26.10
2018-03-31T10:55:36.332Z,28.50
2018-03-31T11:00:30.540Z,24.80
2018-03-31T11:05:21.481Z,28.13
2018-03-31T11:10:13.055Z,26.53
2018-03-31T11:15:03.886Z,26.10
2018-03-31T11:19:54.719Z,24.83
2018-03-31T11:24:45.552Z,23.63
2018-03-31T11:29:36.369Z,24.03
2018-03-31T11:34:27.191Z,25.70
2018-03-31T11:39:18.019Z,26.13
2018-03-31T11:44:08.850Z,24.73
2018-03-31T11:48:59.719Z,26.23
2018-03-31T11:53:50.621Z,28.60
2018-03-31T11:58:41.451Z,27.60
2018-03-31T12:03:32.288Z,28.97
2018-03-31T12:08:23.109Z,25.47
2018-03-31T12:13:13.938Z,28.57
2018-03-31T12:18:04.750Z,26.57
2018-03-31T12:22:55.675Z,26.77
2018-03-31T12:27:47.239Z,24.80
2018-03-31T12:32:38.058Z,26.70
2018-03-31T12:37:29.643Z,20.57
2018-03-31T12:42:20.461Z,20.50
2018-03-31T12:47:11.290Z,21.60
2018-03-31T12:52:02.175Z,23.93
2018-03-31T12:56:53.105Z,27.23
2018-03-31T13:01:44.031Z,24.73
2018-03-31T13:06:34.968Z,22.97
2018-03-31T13:11:26.607Z,27.73
2018-03-31T13:16:17.475Z,27.10
2018-03-31T13:21:08.342Z,25.90
2018-03-31T13:25:59.306Z,23.57
2018-03-31T13:30:50.933Z,24.27
2018-03-31T13:35:41.876Z,28.70
2018-03-31T13:40:32.693Z,24.70
2018-03-31T13:45:23.533Z,27.97
2018-03-31T13:50:14.382Z,28.80
2018-03-31T13:55:05.218Z,26.27
2018-03-31T13:59:56.038Z,24.93
2018-03-31T14:04:46.878Z,24.17
2018-03-31T14:09:37.712Z,25.37
2018-03-31T14:14:29.303Z,27.57
2018-03-31T14:19:20.169Z,26.03
2018-03-31T14:24:11.094Z,29.57
2018-03-31T14:29:02.087Z,29.33
2018-03-31T14:33:52.904Z,26.40
2018-03-31T14:38:43.796Z,25.70
2018-03-31T14:43:34.613Z,29.07
2018-03-31T14:48:25.455Z,29.10
2018-03-31T14:53:16.282Z,31.00
2018-03-31T14:58:07.114Z,29.57
2018-03-31T15:02:58.043Z,28.87
2018-03-31T15:07:48.870Z,25.07
2018-03-31T15:12:39.694Z,26.33
2018-03-31T15:17:30.524Z,28.47
2018-03-31T15:22:21.361Z,23.23
2018-03-31T15:27:12.205Z,23.67
2018-03-31T15:32:03.025Z,27.40
2018-03-31T15:36:53.852Z,25.40
2018-03-31T15:41:44.687Z,30.20
2018-03-31T15:46:35.547Z,25.77
2018-03-31T15:51:26.353Z,25.77
2018-03-31T15:56:17.922Z,27.27
2018-03-31T16:01:09.494Z,30.20
2018-03-31T16:06:00.326Z,28.37
2018-03-31T16:10:51.154Z,27.07
2018-03-31T16:15:41.967Z,34.57
2018-03-31T16:20:32.805Z,28.07
2018-03-31T16:25:23.623Z,27.87
2018-03-31T16:30:14.438Z,34.90
2018-03-31T16:35:05.261Z,36.30
2018-03-31T16:39:56.091Z,32.50
2018-03-31T16:44:46.905Z,33.00
2018-03-31T16:49:37.732Z,29.27
2018-03-31T16:54:28.548Z,32.40
2018-03-31T16:59:19.362Z,33.90
2018-03-31T17:04:10.949Z,36.60
2018-03-31T17:09:01.746Z,34.97
2018-03-31T17:13:53.315Z,33.80
2018-03-31T17:18:44.143Z,32.30
2018-03-31T17:23:35.167Z,33.57
2018-03-31T17:28:25.995Z,33.10
2018-03-31T17:33:17.571Z,32.57
2018-03-31T17:38:08.390Z,34.20
2018-03-31T17:42:59.221Z,36.00
2018-03-31T17:47:50.072Z,35.43
2018-03-31T17:52:40.899Z,34.17
2018-03-31T17:57:31.734Z,31.03
2018-03-31T18:02:22.553Z,34.30
2018-03-31T18:07:13.387Z,31.00
2018-03-31T18:12:04.284Z,31.67
2018-03-31T18:16:55.094Z,33.67
2018-03-31T18:21:46.747Z,33.60
2018-03-31T18:26:37.494Z,30.93
2018-03-31T18:31:28.327Z,37.17
2018-03-31T18:36:19.141Z,30.70
2018-03-31T18:41:10.715Z,30.27
2018-03-31T18:46:01.542Z,28.60
2018-03-31T18:50:52.424Z,33.50
2018-03-31T18:55:43.271Z,29.27
2018-03-31T19:00:34.829Z,28.73
2018-03-31T19:05:26.407Z,30.17
2018-03-31T19:10:17.294Z,31.93
2018-03-31T19:15:08.860Z,31.53
2018-03-31T19:20:00.427Z,32.57
2018-03-31T19:29:43.548Z,32.93
2018-03-31T19:34:35.184Z,36.83
2018-03-31T19:39:33.042Z,34.67
2018-03-31T19:44:23.817Z,38.90
2018-03-31T19:49:14.646Z,37.53
2018-03-31T19:54:05.475Z,36.67
2018-03-31T19:58:56.308Z,32.17
2018-03-31T20:03:47.118Z,38.47
2018-03-31T20:08:38.678Z,33.33
2018-03-31T20:13:29.514Z,38.70
2018-03-31T20:18:20.344Z,34.33
2018-03-31T20:23:11.184Z,31.60
2018-03-31T20:28:02.011Z,31.13
2018-03-31T20:32:52.839Z,31.00
2018-03-31T20:37:43.677Z,35.63
2018-03-31T20:42:34.499Z,35.13
2018-03-31T20:47:25.313Z,32.00
2018-03-31T20:52:16.888Z,31.40
2018-03-31T20:57:07.719Z,34.37
2018-03-31T21:01:58.559Z,27.27
2018-03-31T21:06:49.379Z,26.23
2018-03-31T21:11:40.212Z,27.87
2018-03-31T21:16:31.025Z,32.50
2018-03-31T21:21:21.849Z,27.57
2018-03-31T21:26:12.741Z,29.07
2018-03-31T21:31:03.571Z,25.60
2018-03-31T21:35:54.398Z,31.53
2018-03-31T21:40:45.259Z,29.67
2018-03-31T21:45:36.104Z,29.00
2018-03-31T21:50:26.922Z,25.20
2018-03-31T21:55:17.742Z,27.67
2018-03-31T22:00:09.353Z,23.57
2018-03-31T22:05:00.312Z,23.20
2018-03-31T22:09:51.946Z,19.80
2018-03-31T22:14:48.889Z,21.30
2018-03-31T22:19:39.917Z,21.57
2018-03-31T22:24:30.799Z,17.00
2018-03-31T22:29:21.635Z,24.00
2018-03-31T22:34:12.593Z,20.60
2018-03-31T22:39:03.413Z,16.73
2018-03-31T22:43:54.989Z,17.27
2018-03-31T22:48:45.812Z,13.73
2018-03-31T22:53:36.639Z,13.70
2018-03-31T22:58:27.457Z,13.67
2018-03-31T23:03:18.279Z,11.47
2018-03-31T23:08:09.115Z,12.63
2018-03-31T23:12:59.937Z,12.07
2018-03-31T23:17:50.758Z,11.30
2018-03-31T23:22:41.589Z,8.97
2018-03-31T23:27:32.418Z,10.30
2018-03-31T23:32:23.291Z,10.40
2018-03-31T23:37:14.877Z,8.43
2018-03-31T23:42:05.701Z,8.50
2018-03-31T23:46:56.541Z,8.60
2018-03-31T23:51:47.436Z,10.80
2018-03-31T23:56:38.993Z,8.60
